sensor_id;sensor_type;location;lat;lon;timestamp;pressure;altitude;pressure_sealevel;temperature;humidity
77041;BME280;65974;42.664;23.264;2024-03-08T00:02:05;94427.41;;;5.19;96.92
77041;BME280;65974;42.664;23.264;2024-03-08T00:04:31;94424.34;;;5.17;96.88
77041;BME280;65974;42.664;23.264;2024-03-08T00:06:56;94423.56;;;5.16;96.43
77041;BME280;65974;42.664;23.264;2024-03-08T00:09:22;94428.84;;;5.16;96.33
77041;BME280;65974;42.664;23.264;2024-03-08T00:11:48;94428.16;;;5.19;96.27
77041;BME280;65974;42.664;23.264;2024-03-08T00:14:16;94420.69;;;5.21;95.60
77041;BME280;65974;42.664;23.264;2024-03-08T00:16:42;94417.63;;;5.19;96.04
77041;BME280;65974;42.664;23.264;2024-03-08T00:19:09;94422.63;;;5.24;95.59
77041;BME280;65974;42.664;23.264;2024-03-08T00:21:35;94412.81;;;5.25;95.51
77041;BME280;65974;42.664;23.264;2024-03-08T00:24:01;94412.81;;;5.25;95.25
77041;BME280;65974;42.664;23.264;2024-03-08T00:26:26;94416.66;;;5.27;94.86
77041;BME280;65974;42.664;23.264;2024-03-08T00:28:52;94416.91;;;5.22;95.31
77041;BME280;65974;42.664;23.264;2024-03-08T00:31:19;94410.78;;;5.18;96.64
77041;BME280;65974;42.664;23.264;2024-03-08T00:33:44;94410.13;;;5.21;96.45
77041;BME280;65974;42.664;23.264;2024-03-08T00:36:10;94409.41;;;5.24;96.18
77041;BME280;65974;42.664;23.264;2024-03-08T00:38:35;94399.28;;;5.26;96.03
77041;BME280;65974;42.664;23.264;2024-03-08T00:41:00;94400.41;;;5.25;96.45
77041;BME280;65974;42.664;23.264;2024-03-08T00:43:27;94401.06;;;5.22;96.48
77041;BME280;65974;42.664;23.264;2024-03-08T00:45:53;94402.25;;;5.25;96.86
77041;BME280;65974;42.664;23.264;2024-03-08T00:48:18;94406.50;;;5.29;96.77
77041;BME280;65974;42.664;23.264;2024-03-08T00:50:44;94401.50;;;5.24;96.71
77041;BME280;65974;42.664;23.264;2024-03-08T00:53:12;94407.13;;;5.23;96.51
77041;BME280;65974;42.664;23.264;2024-03-08T00:55:40;94394.69;;;5.23;95.71
77041;BME280;65974;42.664;23.264;2024-03-08T00:58:05;94403.56;;;5.15;95.77
77041;BME280;65974;42.664;23.264;2024-03-08T01:00:31;94396.06;;;5.17;95.64
77041;BME280;65974;42.664;23.264;2024-03-08T01:02:56;94392.72;;;5.20;95.47
77041;BME280;65974;42.664;23.264;2024-03-08T01:05:22;94394.94;;;5.18;95.25
77041;BME280;65974;42.664;23.264;2024-03-08T01:07:50;94383.19;;;5.16;95.75
77041;BME280;65974;42.664;23.264;2024-03-08T01:10:16;94388.41;;;5.12;96.14
77041;BME280;65974;42.664;23.264;2024-03-08T01:12:42;94389.84;;;5.10;96.30
77041;BME280;65974;42.664;23.264;2024-03-08T01:15:10;94387.16;;;5.06;96.22
77041;BME280;65974;42.664;23.264;2024-03-08T01:17:36;94393.44;;;5.02;96.12
77041;BME280;65974;42.664;23.264;2024-03-08T01:20:03;94381.94;;;4.94;96.83
77041;BME280;65974;42.664;23.264;2024-03-08T01:22:29;94383.50;;;4.80;97.45
77041;BME280;65974;42.664;23.264;2024-03-08T01:24:55;94388.78;;;4.80;97.17
77041;BME280;65974;42.664;23.264;2024-03-08T01:27:21;94379.00;;;4.80;97.78
77041;BME280;65974;42.664;23.264;2024-03-08T01:29:47;94384.28;;;4.80;97.82
77041;BME280;65974;42.664;23.264;2024-03-08T01:32:13;94371.69;;;4.73;97.56
77041;BME280;65974;42.664;23.264;2024-03-08T01:34:38;94370.66;;;4.78;97.07
77041;BME280;65974;42.664;23.264;2024-03-08T01:37:04;94368.03;;;4.78;97.37
77041;BME280;65974;42.664;23.264;2024-03-08T01:39:30;94370.31;;;4.80;96.96
77041;BME280;65974;42.664;23.264;2024-03-08T01:41:55;94368.88;;;4.82;96.98
77041;BME280;65974;42.664;23.264;2024-03-08T01:44:22;94367.78;;;4.83;97.29
77041;BME280;65974;42.664;23.264;2024-03-08T01:46:48;94369.88;;;4.78;97.05
77041;BME280;65974;42.664;23.264;2024-03-08T01:49:15;94363.34;;;4.71;97.02
77041;BME280;65974;42.664;23.264;2024-03-08T01:51:43;94371.34;;;4.75;97.71
77041;BME280;65974;42.664;23.264;2024-03-08T01:54:10;94374.25;;;4.70;97.33
77041;BME280;65974;42.664;23.264;2024-03-08T01:56:37;94368.63;;;4.71;97.52
77041;BME280;65974;42.664;23.264;2024-03-08T01:59:04;94366.75;;;4.72;97.71
77041;BME280;65974;42.664;23.264;2024-03-08T02:01:33;94363.34;;;4.71;97.89
77041;BME280;65974;42.664;23.264;2024-03-08T02:04:00;94357.81;;;4.77;97.52
77041;BME280;65974;42.664;23.264;2024-03-08T02:06:25;94350.94;;;4.72;97.27
77041;BME280;65974;42.664;23.264;2024-03-08T02:08:51;94360.03;;;4.75;96.78
77041;BME280;65974;42.664;23.264;2024-03-08T02:11:17;94355.44;;;4.71;95.99
77041;BME280;65974;42.664;23.264;2024-03-08T02:13:44;94350.75;;;4.65;95.92
77041;BME280;65974;42.664;23.264;2024-03-08T02:16:09;94360.28;;;4.69;96.45
77041;BME280;65974;42.664;23.264;2024-03-08T02:18:36;94360.53;;;4.64;96.01
77041;BME280;65974;42.664;23.264;2024-03-08T02:21:05;94369.22;;;4.65;96.11
77041;BME280;65974;42.664;23.264;2024-03-08T02:23:32;94366.81;;;4.60;96.21
77041;BME280;65974;42.664;23.264;2024-03-08T02:25:58;94365.56;;;4.54;96.88
77041;BME280;65974;42.664;23.264;2024-03-08T02:28:24;94363.09;;;4.45;96.90
77041;BME280;65974;42.664;23.264;2024-03-08T02:30:54;94373.16;;;4.55;96.90
77041;BME280;65974;42.664;23.264;2024-03-08T02:33:21;94367.53;;;4.57;97.47
77041;BME280;65974;42.664;23.264;2024-03-08T02:35:49;94376.34;;;4.64;97.38
77041;BME280;65974;42.664;23.264;2024-03-08T02:38:17;94368.97;;;4.70;97.00
77041;BME280;65974;42.664;23.264;2024-03-08T02:40:46;94375.16;;;4.78;96.72
77041;BME280;65974;42.664;23.264;2024-03-08T02:43:12;94372.03;;;4.72;97.15
77041;BME280;65974;42.664;23.264;2024-03-08T02:45:38;94371.19;;;4.68;97.48
77041;BME280;65974;42.664;23.264;2024-03-08T02:48:04;94369.91;;;4.62;98.17
77041;BME280;65974;42.664;23.264;2024-03-08T02:50:32;94367.34;;;4.65;98.46
77041;BME280;65974;42.664;23.264;2024-03-08T02:52:59;94375.75;;;4.71;98.29
77041;BME280;65974;42.664;23.264;2024-03-08T02:55:24;94374.31;;;4.73;99.09
77041;BME280;65974;42.664;23.264;2024-03-08T02:57:51;94371.84;;;4.65;99.65
77041;BME280;65974;42.664;23.264;2024-03-08T03:00:17;94375.25;;;4.65;99.45
77041;BME280;65974;42.664;23.264;2024-03-08T03:02:45;94375.63;;;4.64;98.71
77041;BME280;65974;42.664;23.264;2024-03-08T03:05:10;94374.16;;;4.66;98.38
77041;BME280;65974;42.664;23.264;2024-03-08T03:07:36;94369.63;;;4.67;98.19
77041;BME280;65974;42.664;23.264;2024-03-08T03:10:03;94373.88;;;4.56;97.42
77041;BME280;65974;42.664;23.264;2024-03-08T03:12:29;94377.31;;;4.56;98.22
77041;BME280;65974;42.664;23.264;2024-03-08T03:14:55;94375.09;;;4.58;97.61
77041;BME280;65974;42.664;23.264;2024-03-08T03:17:23;94376.09;;;4.54;98.39
77041;BME280;65974;42.664;23.264;2024-03-08T03:19:48;94381.66;;;4.49;98.08
77041;BME280;65974;42.664;23.264;2024-03-08T03:22:14;94384.09;;;4.42;97.09
77041;BME280;65974;42.664;23.264;2024-03-08T03:24:41;94389.28;;;4.38;97.90
77041;BME280;65974;42.664;23.264;2024-03-08T03:27:07;94386.13;;;4.33;98.19
77041;BME280;65974;42.664;23.264;2024-03-08T03:29:39;94388.88;;;4.36;97.46
77041;BME280;65974;42.664;23.264;2024-03-08T03:32:08;94390.47;;;4.41;96.14
77041;BME280;65974;42.664;23.264;2024-03-08T03:34:34;94399.06;;;4.38;95.02
77041;BME280;65974;42.664;23.264;2024-03-08T03:37:03;94402.28;;;4.31;94.59
77041;BME280;65974;42.664;23.264;2024-03-08T03:39:29;94398.53;;;4.32;94.50
77041;BME280;65974;42.664;23.264;2024-03-08T03:41:57;94401.34;;;4.24;94.18
77041;BME280;65974;42.664;23.264;2024-03-08T03:44:25;94404.84;;;4.28;94.66
77041;BME280;65974;42.664;23.264;2024-03-08T03:46:50;94404.50;;;4.29;93.38
77041;BME280;65974;42.664;23.264;2024-03-08T03:49:16;94410.63;;;4.33;93.09
77041;BME280;65974;42.664;23.264;2024-03-08T03:51:42;94418.28;;;4.38;93.25
77041;BME280;65974;42.664;23.264;2024-03-08T03:54:10;94419.94;;;4.43;92.89
77041;BME280;65974;42.664;23.264;2024-03-08T03:56:35;94417.38;;;4.46;92.53
77041;BME280;65974;42.664;23.264;2024-03-08T03:59:01;94415.50;;;4.47;91.85
77041;BME280;65974;42.664;23.264;2024-03-08T04:01:27;94419.75;;;4.51;91.50
77041;BME280;65974;42.664;23.264;2024-03-08T04:03:52;94417.19;;;4.55;90.70
77041;BME280;65974;42.664;23.264;2024-03-08T04:06:18;94433.03;;;4.55;89.46
77041;BME280;65974;42.664;23.264;2024-03-08T04:08:43;94422.13;;;4.56;88.52
77041;BME280;65974;42.664;23.264;2024-03-08T04:11:10;94429.63;;;4.54;87.23
77041;BME280;65974;42.664;23.264;2024-03-08T04:13:35;94429.97;;;4.53;87.30
77041;BME280;65974;42.664;23.264;2024-03-08T04:16:02;94429.44;;;4.47;86.48
77041;BME280;65974;42.664;23.264;2024-03-08T04:18:28;94442.19;;;4.45;86.82
77041;BME280;65974;42.664;23.264;2024-03-08T04:20:53;94430.13;;;4.44;86.81
77041;BME280;65974;42.664;23.264;2024-03-08T04:23:19;94442.19;;;4.45;86.34
77041;BME280;65974;42.664;23.264;2024-03-08T04:25:45;94443.38;;;4.48;86.68
77041;BME280;65974;42.664;23.264;2024-03-08T04:28:10;94443.03;;;4.49;86.65
77041;BME280;65974;42.664;23.264;2024-03-08T04:30:39;94446.88;;;4.52;86.20
77041;BME280;65974;42.664;23.264;2024-03-08T04:33:07;94454.13;;;4.55;85.73
77041;BME280;65974;42.664;23.264;2024-03-08T04:35:33;94456.75;;;4.55;85.39
77041;BME280;65974;42.664;23.264;2024-03-08T04:37:59;94454.91;;;4.55;85.11
77041;BME280;65974;42.664;23.264;2024-03-08T04:40:25;94458.28;;;4.56;84.77
77041;BME280;65974;42.664;23.264;2024-03-08T04:42:51;94457.41;;;4.52;85.51
77041;BME280;65974;42.664;23.264;2024-03-08T04:45:17;94461.25;;;4.54;85.35
77041;BME280;65974;42.664;23.264;2024-03-08T04:47:43;94458.19;;;4.52;86.21
77041;BME280;65974;42.664;23.264;2024-03-08T04:50:09;94464.25;;;4.53;86.02
77041;BME280;65974;42.664;23.264;2024-03-08T04:52:36;94461.97;;;4.51;86.30
77041;BME280;65974;42.664;23.264;2024-03-08T04:55:02;94457.84;;;4.54;86.80
77041;BME280;65974;42.664;23.264;2024-03-08T04:57:30;94468.31;;;4.50;87.36
77041;BME280;65974;42.664;23.264;2024-03-08T04:59:55;94462.84;;;4.43;87.85
77041;BME280;65974;42.664;23.264;2024-03-08T05:04:50;94459.03;;;2.97;90.98
77041;BME280;65974;42.664;23.264;2024-03-08T05:10:56;94475.47;;;2.38;96.41
77041;BME280;65974;42.664;23.264;2024-03-08T05:16:58;94466.69;;;2.33;97.57
77041;BME280;65974;42.664;23.264;2024-03-08T05:19:55;94482.03;;;2.31;97.99
77041;BME280;65974;42.664;23.264;2024-03-08T05:22:57;94486.63;;;2.34;98.76
77041;BME280;65974;42.664;23.264;2024-03-08T05:25:26;94487.84;;;2.37;99.47
77041;BME280;65974;42.664;23.264;2024-03-08T05:27:57;94483.47;;;2.41;99.50
77041;BME280;65974;42.664;23.264;2024-03-08T05:30:57;94492.09;;;2.74;100.00
77041;BME280;65974;42.664;23.264;2024-03-08T05:36:57;94513.59;;;2.88;100.00
77041;BME280;65974;42.664;23.264;2024-03-08T05:39:57;94509.09;;;2.89;100.00
77041;BME280;65974;42.664;23.264;2024-03-08T05:42:57;94513.06;;;2.95;100.00
77041;BME280;65974;42.664;23.264;2024-03-08T05:45:24;94515.69;;;2.95;100.00
77041;BME280;65974;42.664;23.264;2024-03-08T05:47:53;94527.88;;;2.99;100.00
77041;BME280;65974;42.664;23.264;2024-03-08T05:50:52;94526.66;;;2.97;100.00
77041;BME280;65974;42.664;23.264;2024-03-08T05:56:55;94525.97;;;2.88;100.00
77041;BME280;65974;42.664;23.264;2024-03-08T05:59:53;94536.81;;;2.86;100.00
77041;BME280;65974;42.664;23.264;2024-03-08T06:02:19;94537.69;;;2.90;100.00
77041;BME280;65974;42.664;23.264;2024-03-08T06:04:47;94534.28;;;2.90;99.75
77041;BME280;65974;42.664;23.264;2024-03-08T06:07:13;94544.50;;;2.91;99.53
77041;BME280;65974;42.664;23.264;2024-03-08T06:09:38;94536.28;;;2.93;99.54
77041;BME280;65974;42.664;23.264;2024-03-08T06:12:04;94546.38;;;2.91;99.26
77041;BME280;65974;42.664;23.264;2024-03-08T06:14:32;94545.94;;;2.89;99.62
77041;BME280;65974;42.664;23.264;2024-03-08T06:16:57;94548.03;;;2.95;99.74
77041;BME280;65974;42.664;23.264;2024-03-08T06:19:23;94554.50;;;2.98;98.82
77041;BME280;65974;42.664;23.264;2024-03-08T06:21:50;94553.28;;;2.95;99.72
77041;BME280;65974;42.664;23.264;2024-03-08T06:24:15;94553.19;;;3.04;99.29
77041;BME280;65974;42.664;23.264;2024-03-08T06:26:40;94559.88;;;3.01;99.02
77041;BME280;65974;42.664;23.264;2024-03-08T06:29:06;94544.53;;;3.03;100.00
77041;BME280;65974;42.664;23.264;2024-03-08T06:31:34;94546.91;;;2.96;100.00
77041;BME280;65974;42.664;23.264;2024-03-08T06:34:06;94550.88;;;3.02;99.80
77041;BME280;65974;42.664;23.264;2024-03-08T06:36:36;94553.84;;;3.01;100.00
77041;BME280;65974;42.664;23.264;2024-03-08T06:39:03;94553.19;;;3.04;100.00
77041;BME280;65974;42.664;23.264;2024-03-08T06:41:37;94555.16;;;3.07;99.93
77041;BME280;65974;42.664;23.264;2024-03-08T06:44:03;94563.94;;;3.11;99.18
77041;BME280;65974;42.664;23.264;2024-03-08T06:46:28;94563.94;;;3.11;99.04
77041;BME280;65974;42.664;23.264;2024-03-08T06:48:54;94559.13;;;3.13;99.23
77041;BME280;65974;42.664;23.264;2024-03-08T06:51:19;94562.50;;;3.13;98.52
77041;BME280;65974;42.664;23.264;2024-03-08T06:53:45;94567.47;;;3.15;98.17
77041;BME280;65974;42.664;23.264;2024-03-08T06:56:11;94563.28;;;3.14;97.77
77041;BME280;65974;42.664;23.264;2024-03-08T06:58:36;94567.34;;;3.11;97.64
77041;BME280;65974;42.664;23.264;2024-03-08T07:01:02;94572.84;;;3.19;97.38
77041;BME280;65974;42.664;23.264;2024-03-08T07:03:32;94565.72;;;3.19;98.39
77041;BME280;65974;42.664;23.264;2024-03-08T07:05:59;94566.34;;;3.16;98.82
77041;BME280;65974;42.664;23.264;2024-03-08T07:08:26;94576.69;;;3.21;98.78
77041;BME280;65974;42.664;23.264;2024-03-08T07:10:54;94569.66;;;3.25;99.28
77041;BME280;65974;42.664;23.264;2024-03-08T07:13:19;94566.16;;;3.21;99.02
77041;BME280;65974;42.664;23.264;2024-03-08T07:15:45;94568.88;;;3.25;99.30
77041;BME280;65974;42.664;23.264;2024-03-08T07:18:11;94575.81;;;3.29;99.41
77041;BME280;65974;42.664;23.264;2024-03-08T07:20:40;94578.44;;;3.41;99.82
77041;BME280;65974;42.664;23.264;2024-03-08T07:23:06;94583.41;;;3.43;98.81
77041;BME280;65974;42.664;23.264;2024-03-08T07:25:34;94580.09;;;3.46;98.29
77041;BME280;65974;42.664;23.264;2024-03-08T07:28:00;94585.94;;;3.51;97.37
77041;BME280;65974;42.664;23.264;2024-03-08T07:30:26;94589.75;;;3.54;94.22
77041;BME280;65974;42.664;23.264;2024-03-08T07:33:11;94589.53;;;3.47;94.04
77041;BME280;65974;42.664;23.264;2024-03-08T07:35:40;94591.63;;;3.53;95.05
77041;BME280;65974;42.664;23.264;2024-03-08T07:38:10;94586.66;;;3.52;94.29
77041;BME280;65974;42.664;23.264;2024-03-08T07:40:38;94589.00;;;3.53;93.90
77041;BME280;65974;42.664;23.264;2024-03-08T07:43:06;94594.06;;;3.70;94.24
77041;BME280;65974;42.664;23.264;2024-03-08T07:45:32;94588.56;;;3.63;93.40
77041;BME280;65974;42.664;23.264;2024-03-08T07:47:57;94588.44;;;3.72;93.48
77041;BME280;65974;42.664;23.264;2024-03-08T07:50:23;94590.28;;;3.83;93.58
77041;BME280;65974;42.664;23.264;2024-03-08T07:52:49;94596.66;;;3.94;93.69
77041;BME280;65974;42.664;23.264;2024-03-08T07:55:15;94592.16;;;3.95;92.40
77041;BME280;65974;42.664;23.264;2024-03-08T07:57:42;94589.31;;;3.88;92.85
77041;BME280;65974;42.664;23.264;2024-03-08T08:00:08;94597.22;;;4.00;93.37
77041;BME280;65974;42.664;23.264;2024-03-08T08:02:36;94594.25;;;3.89;92.69
77041;BME280;65974;42.664;23.264;2024-03-08T08:05:01;94593.16;;;3.90;92.76
77041;BME280;65974;42.664;23.264;2024-03-08T08:07:28;94593.81;;;4.00;92.83
77041;BME280;65974;42.664;23.264;2024-03-08T08:09:54;94592.69;;;4.13;92.81
77041;BME280;65974;42.664;23.264;2024-03-08T08:12:19;94596.75;;;4.10;91.97
77041;BME280;65974;42.664;23.264;2024-03-08T08:14:46;94594.53;;;4.12;92.80
77041;BME280;65974;42.664;23.264;2024-03-08T08:17:12;94597.19;;;4.12;92.57
77041;BME280;65974;42.664;23.264;2024-03-08T08:19:37;94595.31;;;4.13;92.90
77041;BME280;65974;42.664;23.264;2024-03-08T08:22:04;94595.28;;;4.25;93.19
77041;BME280;65974;42.664;23.264;2024-03-08T08:24:29;94593.66;;;4.20;92.20
77041;BME280;65974;42.664;23.264;2024-03-08T08:26:55;94594.66;;;4.16;92.57
77041;BME280;65974;42.664;23.264;2024-03-08T08:29:21;94598.91;;;4.20;92.98
77041;BME280;65974;42.664;23.264;2024-03-08T08:31:47;94595.28;;;4.25;91.70
77041;BME280;65974;42.664;23.264;2024-03-08T08:34:12;94595.81;;;4.42;91.73
77041;BME280;65974;42.664;23.264;2024-03-08T08:36:39;94592.06;;;4.43;91.18
77041;BME280;65974;42.664;23.264;2024-03-08T08:39:05;94594.81;;;4.35;90.71
77041;BME280;65974;42.664;23.264;2024-03-08T08:41:37;94582.94;;;4.41;91.25
77041;BME280;65974;42.664;23.264;2024-03-08T08:44:03;94581.84;;;4.42;91.02
77041;BME280;65974;42.664;23.264;2024-03-08T08:46:29;94581.22;;;4.60;90.57
77041;BME280;65974;42.664;23.264;2024-03-08T08:48:54;94574.44;;;4.59;89.08
77041;BME280;65974;42.664;23.264;2024-03-08T08:51:20;94583.25;;;4.51;89.02
77041;BME280;65974;42.664;23.264;2024-03-08T08:53:45;94588.34;;;4.72;89.18
77041;BME280;65974;42.664;23.264;2024-03-08T08:56:13;94590.09;;;4.96;87.77
77041;BME280;65974;42.664;23.264;2024-03-08T08:58:39;94583.28;;;4.95;88.46
77041;BME280;65974;42.664;23.264;2024-03-08T09:01:06;94580.41;;;4.72;88.28
77041;BME280;65974;42.664;23.264;2024-03-08T09:03:33;94589.00;;;4.69;88.89
77041;BME280;65974;42.664;23.264;2024-03-08T09:06:00;94586.47;;;4.72;89.64
77041;BME280;65974;42.664;23.264;2024-03-08T09:08:27;94583.00;;;4.84;88.88
77041;BME280;65974;42.664;23.264;2024-03-08T09:10:54;94584.72;;;4.92;87.65
77041;BME280;65974;42.664;23.264;2024-03-08T09:13:19;94580.63;;;4.95;86.55
77041;BME280;65974;42.664;23.264;2024-03-08T09:15:45;94594.81;;;5.02;85.60
77041;BME280;65974;42.664;23.264;2024-03-08T09:18:10;94578.44;;;4.97;85.47
77041;BME280;65974;42.664;23.264;2024-03-08T09:20:36;94577.19;;;5.06;85.96
77041;BME280;65974;42.664;23.264;2024-03-08T09:23:02;94580.63;;;5.38;86.17
77041;BME280;65974;42.664;23.264;2024-03-08T09:25:29;94577.13;;;5.34;82.16
77041;BME280;65974;42.664;23.264;2024-03-08T09:27:55;94582.22;;;5.27;82.60
77041;BME280;65974;42.664;23.264;2024-03-08T09:30:20;94574.63;;;5.41;81.67
77041;BME280;65974;42.664;23.264;2024-03-08T09:32:48;94577.44;;;5.32;81.51
77041;BME280;65974;42.664;23.264;2024-03-08T09:35:16;94575.59;;;5.48;80.97
77041;BME280;65974;42.664;23.264;2024-03-08T09:37:42;94576.69;;;5.47;79.40
77041;BME280;65974;42.664;23.264;2024-03-08T09:40:09;94575.41;;;5.73;80.93
77041;BME280;65974;42.664;23.264;2024-03-08T09:42:36;94575.22;;;5.81;79.57
77041;BME280;65974;42.664;23.264;2024-03-08T09:45:09;94578.56;;;5.94;79.52
77041;BME280;65974;42.664;23.264;2024-03-08T09:47:37;94575.84;;;5.75;78.00
77041;BME280;65974;42.664;23.264;2024-03-08T09:50:05;94579.41;;;5.67;78.36
77041;BME280;65974;42.664;23.264;2024-03-08T09:52:30;94579.25;;;5.60;79.27
77041;BME280;65974;42.664;23.264;2024-03-08T09:54:58;94574.28;;;5.74;78.99
77041;BME280;65974;42.664;23.264;2024-03-08T09:57:25;94582.22;;;5.74;79.61
77041;BME280;65974;42.664;23.264;2024-03-08T09:59:50;94582.50;;;5.84;77.97
77041;BME280;65974;42.664;23.264;2024-03-08T10:02:20;94576.81;;;6.17;76.78
77041;BME280;65974;42.664;23.264;2024-03-08T10:04:47;94575.00;;;6.21;76.84
77041;BME280;65974;42.664;23.264;2024-03-08T10:07:13;94575.41;;;6.23;73.98
77041;BME280;65974;42.664;23.264;2024-03-08T10:09:39;94569.44;;;6.26;74.65
77041;BME280;65974;42.664;23.264;2024-03-08T10:12:05;94574.53;;;6.00;75.42
77041;BME280;65974;42.664;23.264;2024-03-08T10:14:30;94571.56;;;5.86;75.80
77041;BME280;65974;42.664;23.264;2024-03-08T10:16:57;94564.50;;;5.74;76.33
77041;BME280;65974;42.664;23.264;2024-03-08T10:19:27;94571.72;;;5.93;76.62
77041;BME280;65974;42.664;23.264;2024-03-08T10:21:55;94569.69;;;6.02;75.66
77041;BME280;65974;42.664;23.264;2024-03-08T10:24:24;94575.75;;;6.02;76.47
77041;BME280;65974;42.664;23.264;2024-03-08T10:27:02;94576.47;;;6.03;76.32
77041;BME280;65974;42.664;23.264;2024-03-08T10:29:31;94573.59;;;6.08;75.68
77041;BME280;65974;42.664;23.264;2024-03-08T10:31:56;94571.41;;;6.13;75.41
77041;BME280;65974;42.664;23.264;2024-03-08T10:34:23;94567.63;;;6.11;74.31
77041;BME280;65974;42.664;23.264;2024-03-08T10:36:50;94558.50;;;6.08;74.88
77041;BME280;65974;42.664;23.264;2024-03-08T10:39:22;94567.75;;;6.18;74.40
77041;BME280;65974;42.664;23.264;2024-03-08T10:41:53;94558.53;;;6.28;74.23
77041;BME280;65974;42.664;23.264;2024-03-08T10:47:14;94559.41;;;6.35;74.69
77041;BME280;65974;42.664;23.264;2024-03-08T10:49:57;94553.50;;;6.42;74.92
77041;BME280;65974;42.664;23.264;2024-03-08T10:52:29;94556.09;;;6.38;75.27
77041;BME280;65974;42.664;23.264;2024-03-08T10:54:56;94556.38;;;6.52;74.18
77041;BME280;65974;42.664;23.264;2024-03-08T10:57:22;94551.50;;;6.54;73.60
77041;BME280;65974;42.664;23.264;2024-03-08T10:59:49;94552.00;;;6.60;73.63
77041;BME280;65974;42.664;23.264;2024-03-08T11:02:16;94551.88;;;6.94;72.00
77041;BME280;65974;42.664;23.264;2024-03-08T11:04:50;94541.06;;;7.03;70.71
77041;BME280;65974;42.664;23.264;2024-03-08T11:07:16;94535.06;;;7.06;70.16
77041;BME280;65974;42.664;23.264;2024-03-08T11:09:47;94533.13;;;7.03;67.54
77041;BME280;65974;42.664;23.264;2024-03-08T11:12:26;94534.59;;;7.00;68.13
77041;BME280;65974;42.664;23.264;2024-03-08T11:15:21;94524.38;;;6.80;68.99
77041;BME280;65974;42.664;23.264;2024-03-08T11:17:49;94523.44;;;7.11;69.77
77041;BME280;65974;42.664;23.264;2024-03-08T11:20:17;94516.63;;;7.84;69.56
77041;BME280;65974;42.664;23.264;2024-03-08T11:23:13;94520.25;;;8.25;67.41
77041;BME280;65974;42.664;23.264;2024-03-08T11:25:41;94520.75;;;8.68;65.92
77041;BME280;65974;42.664;23.264;2024-03-08T11:28:19;94514.22;;;8.95;64.24
77041;BME280;65974;42.664;23.264;2024-03-08T11:33:15;94505.91;;;8.63;63.07
77041;BME280;65974;42.664;23.264;2024-03-08T11:35:42;94512.19;;;8.48;64.40
77041;BME280;65974;42.664;23.264;2024-03-08T11:38:11;94506.72;;;8.34;65.44
77041;BME280;65974;42.664;23.264;2024-03-08T11:40:39;94518.19;;;8.15;64.28
77041;BME280;65974;42.664;23.264;2024-03-08T11:43:05;94518.13;;;8.12;64.17
77041;BME280;65974;42.664;23.264;2024-03-08T11:45:34;94507.78;;;8.29;65.46
77041;BME280;65974;42.664;23.264;2024-03-08T11:48:02;94506.81;;;8.78;65.36
77041;BME280;65974;42.664;23.264;2024-03-08T11:50:29;94506.50;;;9.19;65.07
77041;BME280;65974;42.664;23.264;2024-03-08T11:53:01;94499.78;;;9.36;63.33
77041;BME280;65974;42.664;23.264;2024-03-08T11:55:27;94501.50;;;9.58;62.10
77041;BME280;65974;42.664;23.264;2024-03-08T11:58:03;94499.31;;;9.71;62.33
77041;BME280;65974;42.664;23.264;2024-03-08T12:00:29;94494.06;;;9.81;60.80
77041;BME280;65974;42.664;23.264;2024-03-08T12:03:07;94492.53;;;9.84;60.24
77041;BME280;65974;42.664;23.264;2024-03-08T12:05:33;94495.22;;;9.87;60.14
77041;BME280;65974;42.664;23.264;2024-03-08T12:08:00;94502.66;;;10.19;58.77
77041;BME280;65974;42.664;23.264;2024-03-08T12:10:26;94498.94;;;9.72;58.92
77041;BME280;65974;42.664;23.264;2024-03-08T12:12:53;94496.84;;;9.48;58.71
77041;BME280;65974;42.664;23.264;2024-03-08T12:15:21;94501.31;;;9.37;60.20
77041;BME280;65974;42.664;23.264;2024-03-08T12:17:49;94495.88;;;9.70;58.81
77041;BME280;65974;42.664;23.264;2024-03-08T12:20:16;94491.72;;;9.73;59.08
77041;BME280;65974;42.664;23.264;2024-03-08T12:22:43;94490.50;;;9.63;59.00
77041;BME280;65974;42.664;23.264;2024-03-08T12:25:11;94491.03;;;9.32;60.22
77041;BME280;65974;42.664;23.264;2024-03-08T12:27:41;94490.31;;;8.95;62.13
77041;BME280;65974;42.664;23.264;2024-03-08T12:32:57;94497.63;;;8.35;63.16
77041;BME280;65974;42.664;23.264;2024-03-08T12:35:24;94487.59;;;7.95;64.11
77041;BME280;65974;42.664;23.264;2024-03-08T12:37:53;94471.59;;;7.88;64.76
77041;BME280;65974;42.664;23.264;2024-03-08T12:40:28;94482.19;;;8.14;64.51
77041;BME280;65974;42.664;23.264;2024-03-08T12:42:55;94479.22;;;7.90;64.00
77041;BME280;65974;42.664;23.264;2024-03-08T12:45:22;94473.41;;;8.10;63.98
77041;BME280;65974;42.664;23.264;2024-03-08T12:47:58;94471.16;;;8.12;64.02
77041;BME280;65974;42.664;23.264;2024-03-08T12:50:25;94476.38;;;8.05;63.48
77041;BME280;65974;42.664;23.264;2024-03-08T12:52:51;94474.75;;;7.97;64.58
77041;BME280;65974;42.664;23.264;2024-03-08T12:55:18;94461.66;;;7.81;66.15
77041;BME280;65974;42.664;23.264;2024-03-08T12:57:44;94465.84;;;7.82;67.12
77041;BME280;65974;42.664;23.264;2024-03-08T13:00:11;94468.28;;;7.95;66.58
77041;BME280;65974;42.664;23.264;2024-03-08T13:02:45;94472.72;;;7.87;67.52
77041;BME280;65974;42.664;23.264;2024-03-08T13:05:11;94472.47;;;7.96;66.61
77041;BME280;65974;42.664;23.264;2024-03-08T13:07:40;94462.72;;;8.03;65.92
77041;BME280;65974;42.664;23.264;2024-03-08T13:10:06;94468.16;;;8.14;65.48
77041;BME280;65974;42.664;23.264;2024-03-08T13:12:32;94467.41;;;8.13;65.75
77041;BME280;65974;42.664;23.264;2024-03-08T13:14:58;94465.09;;;8.12;65.78
77041;BME280;65974;42.664;23.264;2024-03-08T13:17:23;94467.34;;;8.10;65.22
77041;BME280;65974;42.664;23.264;2024-03-08T13:19:49;94470.50;;;8.19;65.06
77041;BME280;65974;42.664;23.264;2024-03-08T13:22:14;94472.91;;;8.27;65.04
77041;BME280;65974;42.664;23.264;2024-03-08T13:24:44;94467.69;;;8.34;65.77
77041;BME280;65974;42.664;23.264;2024-03-08T13:27:10;94472.34;;;8.44;64.24
77041;BME280;65974;42.664;23.264;2024-03-08T13:29:48;94467.47;;;8.20;64.79